TimeAKST,TemperatureF,Dew PointF,Humidity,Sea Level PressureIn,VisibilityMPH,Wind Direction,Wind SpeedMPH,Gust SpeedMPH,PrecipitationIn,Events,Conditions,WindDirDegrees,DateUTC
12:53 AM,41.0,32.0,70,29.12,10.0,SSW,29.9,43.7,N/A,,Overcast,210,2012-12-13 09:53:00
1:53 AM,39.9,33.1,77,29.13,10.0,SSW,32.2,42.6,N/A,,Overcast,210,2012-12-13 10:53:00
3:53 AM,41.0,34.0,76,29.13,10.0,SSW,28.8,39.1,0.00,,Overcast,210,2012-12-13 12:53:00
4:53 AM,41.0,32.0,70,29.14,10.0,SSW,28.8,36.8,N/A,,Mostly Cloudy,200,2012-12-13 13:53:00
5:53 AM,41.0,32.0,70,29.15,10.0,SSW,31.1,40.3,N/A,,Partly Cloudy,210,2012-12-13 14:53:00
6:53 AM,39.9,32.0,73,29.18,10.0,SSW,28.8,-,N/A,,Partly Cloudy,210,2012-12-13 15:53:00
7:53 AM,39.9,32.0,73,29.21,10.0,SSW,25.3,31.1,N/A,,Mostly Cloudy,210,2012-12-13 16:53:00
8:53 AM,39.9,32.0,73,29.22,10.0,SSW,25.3,35.7,N/A,,Overcast,210,2012-12-13 17:53:00
9:53 AM,39.0,33.1,79,29.24,10.0,SSW,23.0,35.7,N/A,,Overcast,200,2012-12-13 18:53:00
10:53 AM,39.0,33.1,79,29.27,10.0,SSW,24.2,35.7,0.00,,Overcast,200,2012-12-13 19:53:00
11:10 AM,39.2,33.8,81,29.27,10.0,SSW,25.3,32.2,0.00,Rain,Light Rain,210,2012-12-13 20:10:00
11:34 AM,39.2,33.8,81,29.28,10.0,SSW,25.3,32.2,0.00,,Overcast,210,2012-12-13 20:34:00
11:53 AM,39.9,32.0,73,29.30,10.0,SSW,26.5,34.5,0.00,,Mostly Cloudy,210,2012-12-13 20:53:00
12:53 PM,39.9,32.0,73,29.31,10.0,SSW,23.0,29.9,N/A,,Scattered Clouds,200,2012-12-13 21:53:00
1:53 PM,39.9,30.9,70,29.34,10.0,SSW,18.4,27.6,N/A,,Scattered Clouds,200,2012-12-13 22:53:00
3:53 PM,39.0,30.9,73,29.37,10.0,SSW,17.3,23.0,N/A,,Scattered Clouds,200,2012-12-14 00:53:00
4:53 PM,39.0,30.9,73,29.39,10.0,SSW,13.8,21.9,N/A,,Overcast,210,2012-12-14 01:53:00
5:53 PM,37.9,30.9,76,29.40,10.0,SSW,17.3,25.3,N/A,,Mostly Cloudy,200,2012-12-14 02:53:00
6:53 PM,37.9,30.9,76,29.42,10.0,SSW,16.1,24.2,N/A,,Mostly Cloudy,200,2012-12-14 03:53:00
7:53 PM,37.9,32.0,79,29.42,10.0,SSW,18.4,28.8,N/A,,Mostly Cloudy,200,2012-12-14 04:53:00
8:53 PM,37.9,30.9,76,29.43,10.0,SSW,20.7,28.8,N/A,,Overcast,200,2012-12-14 05:53:00
9:53 PM,39.0,30.9,73,29.43,10.0,SSW,20.7,26.5,N/A,,Overcast,200,2012-12-14 06:53:00
10:53 PM,39.0,30.9,73,29.44,10.0,SSW,19.6,35.7,N/A,,Overcast,200,2012-12-14 07:53:00
11:53 PM,37.9,32.0,79,29.44,10.0,SSW,23.0,33.4,N/A,,Overcast,210,2012-12-14 08:53:00